createdAt,value
2018-11-26T07:22:32.509Z,11.25
2018-11-26T07:23:32.186Z,11.25
2018-11-26T07:24:31.664Z,16.88
2018-11-26T07:25:31.634Z,16.88
2018-11-26T07:27:43.520Z,16.88
2018-11-26T07:28:42.457Z,16.88
2018-11-26T07:29:42.552Z,16.88
2018-11-26T07:30:42.516Z,22.50
2018-11-26T07:31:42.480Z,28.12
2018-11-26T07:32:42.552Z,28.12
2018-11-26T07:33:42.520Z,28.12
2018-11-26T07:34:42.533Z,28.12
2018-11-26T07:35:42.518Z,28.12
2018-11-26T07:36:42.317Z,33.75
2018-11-26T07:37:42.528Z,39.38
2018-11-26T07:38:42.526Z,33.75
2018-11-26T07:39:42.339Z,33.75
2018-11-26T07:40:42.525Z,33.75
2018-11-26T07:42:52.577Z,39.38
2018-11-26T07:43:52.527Z,39.38
2018-11-26T07:44:52.542Z,39.38
2018-11-26T07:45:52.514Z,39.38
2018-11-26T07:46:52.416Z,39.38
2018-11-26T07:47:52.555Z,39.38
2018-11-26T07:48:52.884Z,39.38
2018-11-26T07:49:52.441Z,39.38
2018-11-26T07:50:52.359Z,45.00
2018-11-26T07:51:52.539Z,45.00
2018-11-26T07:52:52.472Z,50.62
2018-11-26T07:53:52.391Z,56.25
2018-11-26T07:54:52.900Z,50.62
2018-11-26T07:55:52.501Z,45.00
2018-11-26T07:58:06.449Z,56.25
2018-11-26T07:59:05.533Z,50.62
2018-11-26T08:00:05.549Z,56.25
2018-11-26T08:01:05.557Z,56.25
2018-11-26T08:02:05.442Z,50.62
2018-11-26T08:03:05.346Z,45.00
2018-11-26T08:04:05.897Z,45.00
2018-11-26T08:05:05.471Z,50.62
2018-11-26T08:06:08.877Z,56.25
2018-11-26T08:07:05.576Z,61.88
2018-11-26T08:08:05.502Z,67.50
2018-11-26T08:09:05.402Z,67.50
2018-11-26T08:10:05.601Z,61.88
2018-11-26T08:11:05.523Z,50.62
2018-11-26T08:13:16.558Z,50.62
2018-11-26T08:14:15.975Z,61.88
2018-11-26T08:15:15.874Z,56.25
2018-11-26T08:16:15.701Z,61.88
2018-11-26T08:17:15.683Z,61.88
2018-11-26T08:18:15.906Z,67.50
2018-11-26T08:19:15.677Z,61.88
2018-11-26T08:20:15.713Z,67.50
2018-11-26T08:21:16.238Z,61.88
2018-11-26T08:22:16.131Z,56.25
2018-11-26T08:23:15.651Z,56.25
2018-11-26T08:24:15.970Z,56.25
2018-11-26T08:25:15.670Z,61.88
2018-11-26T08:26:15.578Z,73.12
2018-11-26T08:28:39.652Z,67.50
2018-11-26T08:29:38.614Z,84.38
2018-11-26T08:30:38.588Z,84.38
2018-11-26T08:31:38.569Z,84.38
2018-11-26T08:32:38.574Z,78.75
2018-11-26T08:33:38.580Z,84.38
2018-11-26T08:34:38.581Z,84.38
2018-11-26T08:35:38.552Z,84.38
2018-11-26T08:36:38.455Z,73.12
2018-11-26T08:37:38.584Z,84.38
2018-11-26T08:38:38.608Z,90.00
2018-11-26T08:39:38.392Z,90.00
2018-11-26T08:40:38.607Z,84.38
2018-11-26T08:41:38.627Z,84.38
2018-11-26T08:43:50.625Z,90.00
2018-11-26T08:44:50.594Z,95.62
2018-11-26T08:45:50.501Z,95.62
2018-11-26T08:46:50.748Z,90.00
2018-11-26T08:47:50.593Z,84.38
2018-11-26T08:48:50.526Z,84.38
2018-11-26T08:49:50.631Z,95.62
2018-11-26T08:50:50.340Z,90.00
2018-11-26T08:51:50.591Z,101.25
2018-11-26T08:52:50.447Z,101.25
2018-11-26T08:53:50.360Z,101.25
2018-11-26T08:54:50.609Z,101.25
2018-11-26T08:55:50.540Z,106.88
2018-11-26T08:56:50.376Z,101.25
2018-11-26T08:59:01.274Z,118.12
2018-11-26T09:00:00.640Z,123.75
2018-11-26T09:01:00.619Z,118.12
2018-11-26T09:02:00.631Z,118.12
2018-11-26T09:03:00.563Z,123.75
2018-11-26T09:04:00.479Z,123.75
2018-11-26T09:05:00.642Z,129.38
2018-11-26T09:06:00.592Z,123.75
2018-11-26T09:07:00.630Z,118.12
2018-11-26T09:08:00.650Z,123.75
2018-11-26T09:09:00.625Z,135.00
2018-11-26T09:10:00.523Z,112.50
2018-11-26T09:11:00.433Z,118.12
2018-11-26T09:12:00.648Z,129.38
2018-11-26T09:14:10.678Z,135.00
2018-11-26T09:15:10.615Z,140.62
2018-11-26T09:16:10.646Z,135.00
2018-11-26T09:17:10.594Z,135.00
2018-11-26T09:18:10.501Z,135.00
2018-11-26T09:19:10.623Z,135.00
2018-11-26T09:20:10.665Z,151.88
2018-11-26T09:21:10.530Z,151.88
2018-11-26T09:22:10.652Z,146.25
2018-11-26T09:23:10.635Z,129.38
2018-11-26T09:24:10.624Z,123.75
2018-11-26T09:25:10.449Z,123.75
2018-11-26T09:26:10.975Z,129.38
2018-11-26T09:27:10.577Z,135.00
2018-11-26T09:29:21.650Z,118.12
2018-11-26T09:30:21.647Z,106.88
2018-11-26T09:31:21.554Z,106.88
2018-11-26T09:32:21.634Z,106.88
2018-11-26T09:33:21.638Z,95.62
2018-11-26T09:34:21.275Z,112.50
2018-11-26T09:35:21.489Z,123.75
2018-11-26T09:36:21.388Z,123.75
2018-11-26T09:37:21.627Z,118.12
2018-11-26T09:38:21.521Z,123.75
2018-11-26T09:39:21.110Z,135.00
2018-11-26T09:40:21.030Z,123.75
2018-11-26T09:41:21.541Z,123.75
2018-11-26T09:42:21.431Z,123.75
2018-11-26T09:44:42.706Z,123.75
2018-11-26T09:45:42.649Z,118.12
2018-11-26T09:46:42.565Z,123.75
2018-11-26T09:47:42.657Z,146.25
2018-11-26T09:48:42.654Z,163.12
2018-11-26T09:49:42.582Z,163.12
2018-11-26T09:50:42.693Z,174.38
2018-11-26T09:51:42.666Z,180.00
2018-11-26T09:52:42.670Z,185.62
2018-11-26T09:53:42.507Z,191.25
2018-11-26T09:54:42.668Z,208.12
2018-11-26T09:55:42.624Z,225.00
2018-11-26T09:56:42.684Z,225.00
2018-11-26T09:57:42.445Z,236.25
2018-11-26T09:59:54.010Z,219.38
2018-11-26T10:00:52.607Z,208.12
2018-11-26T10:01:52.512Z,208.12
2018-11-26T10:02:52.683Z,213.75
2018-11-26T10:03:52.612Z,191.25
2018-11-26T10:04:52.670Z,174.38
2018-11-26T10:05:52.706Z,185.62
2018-11-26T10:06:52.638Z,180.00
2018-11-26T10:07:52.677Z,174.38
2018-11-26T10:08:52.460Z,174.38
2018-11-26T10:09:52.676Z,191.25
2018-11-26T10:10:52.583Z,196.88
2018-11-26T10:11:52.708Z,208.12
2018-11-26T10:12:52.689Z,213.75
2018-11-26T10:15:02.742Z,196.88
2018-11-26T10:16:02.691Z,219.38
2018-11-26T10:17:02.719Z,213.75
2018-11-26T10:18:02.645Z,202.50
2018-11-26T10:19:02.704Z,208.12
2018-11-26T10:20:02.695Z,219.38
2018-11-26T10:21:02.709Z,247.50
2018-11-26T10:22:02.881Z,264.38
2018-11-26T10:23:02.693Z,253.12
2018-11-26T10:24:03.011Z,281.25
2018-11-26T10:25:06.062Z,264.38
2018-11-26T10:26:02.525Z,275.62
2018-11-26T10:27:03.026Z,286.88
2018-11-26T10:28:02.642Z,286.88
2018-11-26T10:30:13.497Z,196.88
2018-11-26T10:31:13.100Z,196.88
2018-11-26T10:32:12.825Z,191.25
2018-11-26T10:33:14.959Z,174.38
2018-11-26T10:34:13.121Z,185.62
2018-11-26T10:35:13.637Z,208.12
2018-11-26T10:36:12.866Z,213.75
2018-11-26T10:37:12.837Z,213.75
2018-11-26T10:38:13.038Z,174.38
2018-11-26T10:39:12.853Z,185.62
2018-11-26T10:40:12.752Z,219.38
2018-11-26T10:41:12.721Z,191.25
2018-11-26T10:42:12.710Z,196.88
2018-11-26T10:43:12.776Z,191.25
2018-11-26T10:45:24.356Z,174.38
2018-11-26T10:46:23.638Z,163.12
2018-11-26T10:47:23.718Z,168.75
2018-11-26T10:48:24.074Z,168.75
2018-11-26T10:49:23.719Z,185.62
2018-11-26T10:50:23.745Z,191.25
2018-11-26T10:51:23.723Z,157.50
2018-11-26T10:52:23.733Z,146.25
2018-11-26T10:53:23.637Z,157.50
2018-11-26T10:54:23.810Z,174.38
2018-11-26T10:55:23.706Z,202.50
2018-11-26T10:56:23.777Z,219.38
2018-11-26T10:57:23.516Z,191.25
2018-11-26T10:58:23.741Z,180.00
2018-11-26T10:59:23.644Z,202.50
2018-11-26T11:01:34.513Z,230.62
2018-11-26T11:02:34.113Z,225.00
2018-11-26T11:03:33.834Z,202.50
2018-11-26T11:04:33.819Z,219.38
2018-11-26T11:05:33.824Z,270.00
2018-11-26T11:06:33.797Z,253.12
2018-11-26T11:07:33.896Z,253.12
2018-11-26T11:08:33.808Z,213.75
2018-11-26T11:09:34.063Z,236.25
2018-11-26T11:10:33.794Z,236.25
2018-11-26T11:11:34.481Z,230.62
2018-11-26T11:12:33.735Z,225.00
2018-11-26T11:13:33.838Z,208.12
2018-11-26T11:14:33.757Z,196.88
2018-11-26T11:16:47.796Z,196.88
2018-11-26T11:17:47.121Z,202.50
2018-11-26T11:18:47.033Z,185.62
2018-11-26T11:19:47.245Z,185.62
2018-11-26T11:20:47.145Z,185.62
2018-11-26T11:21:47.056Z,202.50
2018-11-26T11:22:47.776Z,196.88
2018-11-26T11:23:47.158Z,196.88
2018-11-26T11:24:47.104Z,202.50
2018-11-26T11:25:46.874Z,191.25
2018-11-26T11:26:46.874Z,185.62
2018-11-26T11:27:47.094Z,174.38
2018-11-26T11:28:46.954Z,168.75
2018-11-26T11:30:57.776Z,168.75
2018-11-26T11:31:57.777Z,168.75
2018-11-26T11:32:57.360Z,151.88
2018-11-26T11:33:57.605Z,146.25
2018-11-26T11:34:57.192Z,140.62
2018-11-26T11:35:57.705Z,135.00
2018-11-26T11:36:57.615Z,140.62
2018-11-26T11:37:57.203Z,123.75
2018-11-26T11:38:57.413Z,123.75
2018-11-26T11:39:58.063Z,118.12
2018-11-26T11:40:58.154Z,118.12
2018-11-26T11:41:57.140Z,118.12
2018-11-26T11:42:57.659Z,118.12
2018-11-26T11:43:57.254Z,118.12
2018-11-26T11:44:57.173Z,123.75
2018-11-26T11:47:40.888Z,123.75
2018-11-26T11:48:40.772Z,118.12
2018-11-26T11:49:40.813Z,118.12
2018-11-26T11:50:40.782Z,118.12
2018-11-26T11:51:41.131Z,118.12
2018-11-26T11:52:40.721Z,118.12
2018-11-26T11:53:40.635Z,118.12
2018-11-26T11:54:40.786Z,112.50
2018-11-26T11:55:40.749Z,106.88
2018-11-26T11:56:40.651Z,106.88
2018-11-26T11:57:40.853Z,101.25
2018-11-26T11:58:40.774Z,106.88
2018-11-26T11:59:40.672Z,106.88
2018-11-26T12:01:51.851Z,106.88
2018-11-26T12:02:51.795Z,101.25
2018-11-26T12:03:51.351Z,106.88
2018-11-26T12:04:51.248Z,112.50
2018-11-26T12:05:51.157Z,118.12
2018-11-26T12:06:51.810Z,118.12
2018-11-26T12:07:51.795Z,118.12
2018-11-26T12:08:51.823Z,112.50
2018-11-26T12:09:51.391Z,112.50
2018-11-26T12:10:51.625Z,118.12
2018-11-26T12:11:51.233Z,112.50
2018-11-26T12:12:51.109Z,106.88
2018-11-26T12:13:51.797Z,95.62
2018-11-26T12:14:51.224Z,95.62
2018-11-26T12:17:15.859Z,106.88
2018-11-26T12:18:15.514Z,106.88
2018-11-26T12:19:15.111Z,112.50
2018-11-26T12:20:14.938Z,106.88
2018-11-26T12:21:15.802Z,112.50
2018-11-26T12:22:15.140Z,112.50
2018-11-26T12:23:14.901Z,123.75
2018-11-26T12:24:16.177Z,123.75
2018-11-26T12:25:15.774Z,118.12
2018-11-26T12:26:14.869Z,106.88
2018-11-26T12:27:14.866Z,106.88
2018-11-26T12:28:14.841Z,106.88
2018-11-26T12:29:14.837Z,112.50
2018-11-26T12:30:14.932Z,123.75
2018-11-26T12:32:26.868Z,174.38
2018-11-26T12:33:25.764Z,180.00
2018-11-26T12:34:25.818Z,168.75
2018-11-26T12:35:25.817Z,157.50
2018-11-26T12:36:25.818Z,146.25
2018-11-26T12:37:25.690Z,146.25
2018-11-26T12:38:26.209Z,151.88
2018-11-26T12:39:26.423Z,157.50
2018-11-26T12:40:25.710Z,140.62
2018-11-26T12:41:25.827Z,129.38
2018-11-26T12:42:25.840Z,123.75
2018-11-26T12:43:25.730Z,118.12
2018-11-26T12:44:25.891Z,112.50
2018-11-26T12:45:25.843Z,106.88
2018-11-26T12:47:35.853Z,106.88
2018-11-26T12:48:35.709Z,101.25
2018-11-26T12:49:35.834Z,101.25
2018-11-26T12:50:35.892Z,101.25
2018-11-26T12:51:35.865Z,101.25
2018-11-26T12:52:35.842Z,101.25
2018-11-26T12:53:35.871Z,101.25
2018-11-26T12:54:35.746Z,112.50
2018-11-26T12:55:35.852Z,112.50
2018-11-26T12:56:35.843Z,123.75
2018-11-26T12:57:35.852Z,140.62
2018-11-26T12:58:35.899Z,135.00
2018-11-26T12:59:35.620Z,129.38
2018-11-26T13:00:35.859Z,129.38
2018-11-26T13:02:48.849Z,118.12
2018-11-26T13:03:48.854Z,106.88
2018-11-26T13:04:48.649Z,101.25
2018-11-26T13:05:48.543Z,95.62
2018-11-26T13:06:48.871Z,95.62
2018-11-26T13:07:48.863Z,90.00
2018-11-26T13:08:48.550Z,84.38
2018-11-26T13:09:48.869Z,84.38
2018-11-26T13:10:48.682Z,84.38
2018-11-26T13:11:48.608Z,90.00
2018-11-26T13:12:48.486Z,90.00
2018-11-26T13:13:48.392Z,84.38
2018-11-26T13:14:48.596Z,84.38
2018-11-26T13:15:48.844Z,84.38
2018-11-26T13:18:11.917Z,73.12
2018-11-26T13:19:11.561Z,67.50
2018-11-26T13:20:11.461Z,67.50
2018-11-26T13:21:11.875Z,67.50
2018-11-26T13:22:11.286Z,61.88
2018-11-26T13:23:11.513Z,61.88
2018-11-26T13:24:11.394Z,61.88
2018-11-26T13:25:11.307Z,61.88
2018-11-26T13:26:11.924Z,56.25
2018-11-26T13:27:11.433Z,56.25
2018-11-26T13:28:11.691Z,61.88
2018-11-26T13:29:11.848Z,56.25
2018-11-26T13:30:11.457Z,56.25
2018-11-26T13:31:11.352Z,50.62
2018-11-26T13:33:34.810Z,45.00
2018-11-26T13:34:34.783Z,45.00
2018-11-26T13:35:34.615Z,45.00
2018-11-26T13:36:34.521Z,45.00
2018-11-26T13:37:34.887Z,39.38
2018-11-26T13:38:34.641Z,45.00
2018-11-26T13:39:34.543Z,45.00
2018-11-26T13:40:34.897Z,50.62
2018-11-26T13:41:34.668Z,50.62
2018-11-26T13:42:34.597Z,45.00
2018-11-26T13:43:34.790Z,50.62
2018-11-26T13:44:34.376Z,50.62
2018-11-26T13:45:34.606Z,45.00
2018-11-26T13:46:34.806Z,45.00
2018-11-26T13:48:47.944Z,45.00
2018-11-26T13:49:47.744Z,50.62
2018-11-26T13:50:48.896Z,50.62
2018-11-26T13:51:48.149Z,50.62
2018-11-26T13:52:47.745Z,56.25
2018-11-26T13:53:47.654Z,61.88
2018-11-26T13:54:47.965Z,61.88
2018-11-26T13:55:47.790Z,56.25
2018-11-26T13:56:48.292Z,56.25
2018-11-26T13:57:47.888Z,45.00
2018-11-26T13:58:47.806Z,39.38
2018-11-26T13:59:47.913Z,39.38
2018-11-26T14:00:48.223Z,33.75
2018-11-26T14:01:47.827Z,33.75
2018-11-26T14:04:10.913Z,33.75
2018-11-26T14:05:10.578Z,33.75
2018-11-26T14:06:10.816Z,33.75
2018-11-26T14:07:10.378Z,28.12
2018-11-26T14:08:10.290Z,22.50
2018-11-26T14:09:10.498Z,22.50
2018-11-26T14:10:10.403Z,22.50
2018-11-26T14:11:10.614Z,22.50
2018-11-26T14:12:10.211Z,16.88
2018-11-26T14:13:10.419Z,16.88
2018-11-26T14:14:10.939Z,16.88
2018-11-26T14:15:10.235Z,16.88
2018-11-26T14:16:10.446Z,22.50
2018-11-26T14:17:11.289Z,22.50
2018-11-26T14:19:22.930Z,16.88
2018-11-26T14:20:22.364Z,16.88
2018-11-26T14:21:22.872Z,16.88
2018-11-26T14:22:22.083Z,16.88
2018-11-26T14:23:22.072Z,16.88
2018-11-26T14:24:22.297Z,16.88
2018-11-26T14:25:22.130Z,16.88
2018-11-26T14:26:22.065Z,16.88
2018-11-26T14:27:22.313Z,16.88
2018-11-26T14:28:22.126Z,16.88
2018-11-26T14:29:22.011Z,11.25
2018-11-26T14:30:22.333Z,11.25
2018-11-26T14:31:22.012Z,11.25
2018-11-26T14:32:22.000Z,11.25
2018-11-26T14:34:35.985Z,11.25
2018-11-26T14:35:35.946Z,11.25
2018-11-26T14:36:35.893Z,11.25
2018-11-26T14:37:35.799Z,11.25
2018-11-26T14:38:35.695Z,11.25
2018-11-26T14:39:35.953Z,11.25
2018-11-26T14:40:35.948Z,11.25
2018-11-26T14:41:35.737Z,11.25
2018-11-26T14:42:36.248Z,5.62
2018-11-26T14:43:36.057Z,5.62
2018-11-26T14:44:35.840Z,5.62
2018-11-26T14:45:35.959Z,5.62
2018-11-26T14:46:35.975Z,5.62
2018-11-26T14:47:35.972Z,5.62
2018-11-26T14:49:48.004Z,5.62
2018-11-26T14:50:47.978Z,5.62
2018-11-26T14:51:47.983Z,5.62
2018-11-26T14:52:47.959Z,5.62
2018-11-26T14:53:47.959Z,5.62
2018-11-26T14:54:48.011Z,5.62
2018-11-26T14:55:47.907Z,0.00
2018-11-26T14:56:47.822Z,0.00
2018-11-26T14:57:47.711Z,0.00
2018-11-26T14:58:47.948Z,0.00
2018-11-26T14:59:47.829Z,0.00
2018-11-26T15:00:48.001Z,0.00
2018-11-26T15:01:47.971Z,0.00
2018-11-26T15:02:47.858Z,0.00
2018-11-26T15:05:11.011Z,0.00
2018-11-26T15:06:10.985Z,0.00
2018-11-26T15:07:10.974Z,0.00
2018-11-26T15:08:11.030Z,0.00
2018-11-26T15:09:10.941Z,0.00
2018-11-26T15:10:10.844Z,0.00
2018-11-26T15:11:10.981Z,0.00
2018-11-26T15:12:10.985Z,0.00
2018-11-26T15:13:10.990Z,0.00
2018-11-26T15:14:10.991Z,0.00
2018-11-26T15:15:10.979Z,0.00
2018-11-26T15:16:10.941Z,0.00
2018-11-26T15:17:10.798Z,0.00
2018-11-26T15:18:11.019Z,0.00
2018-11-26T15:20:23.034Z,0.00
2018-11-26T15:21:24.037Z,0.00
2018-11-26T15:22:22.614Z,0.00
2018-11-26T15:23:22.523Z,0.00
2018-11-26T15:24:22.996Z,0.00
2018-11-26T15:25:22.647Z,0.00
2018-11-26T15:26:22.992Z,0.00
2018-11-26T15:27:22.441Z,0.00
2018-11-26T15:28:22.657Z,0.00
2018-11-26T15:29:22.559Z,0.00
2018-11-26T15:30:22.775Z,0.00
2018-11-26T15:31:22.369Z,0.00
2018-11-26T15:32:22.686Z,0.00
2018-11-26T15:33:23.015Z,0.00
2018-11-26T15:35:43.802Z,0.00
2018-11-26T15:36:44.015Z,0.00
2018-11-26T15:37:43.165Z,0.00
2018-11-26T15:38:43.109Z,0.00
2018-11-26T15:39:43.114Z,0.00
2018-11-26T15:40:43.342Z,0.00
2018-11-26T15:41:43.543Z,0.00
2018-11-26T15:42:43.128Z,0.00
2018-11-26T15:43:43.343Z,0.00
2018-11-26T15:44:43.046Z,0.00
2018-11-26T15:45:43.083Z,0.00
2018-11-26T15:46:43.027Z,0.00
2018-11-26T15:47:43.108Z,0.00
2018-11-26T15:48:43.033Z,0.00
2018-11-26T15:50:55.087Z,0.00
2018-11-26T15:51:55.039Z,0.00
2018-11-26T15:52:55.020Z,0.00
2018-11-26T15:53:54.988Z,0.00
2018-11-26T15:54:54.893Z,0.00
2018-11-26T15:55:54.864Z,0.00
2018-11-26T15:56:55.065Z,0.00
2018-11-26T15:57:54.923Z,0.00
2018-11-26T15:58:54.828Z,0.00
2018-11-26T15:59:54.727Z,0.00
2018-11-26T16:00:54.948Z,0.00
2018-11-26T16:01:54.848Z,0.00
2018-11-26T16:02:56.085Z,0.00
2018-11-26T16:03:54.974Z,0.00
2018-11-26T16:06:08.228Z,0.00
2018-11-26T16:07:08.044Z,0.00
2018-11-26T16:08:08.407Z,0.00
2018-11-26T16:09:08.072Z,0.00
2018-11-26T16:10:07.913Z,0.00
2018-11-26T16:11:07.826Z,0.00
2018-11-26T16:12:11.241Z,0.00
2018-11-26T16:13:07.923Z,0.00
2018-11-26T16:14:08.078Z,0.00
2018-11-26T16:15:07.772Z,0.00
2018-11-26T16:16:07.961Z,0.00
2018-11-26T16:17:07.854Z,0.00
2018-11-26T16:18:07.762Z,0.00
2018-11-26T16:19:07.977Z,0.00
2018-11-26T16:21:20.384Z,0.00
2018-11-26T16:22:19.981Z,0.00
2018-11-26T16:23:19.945Z,0.00
2018-11-26T16:24:19.782Z,0.00
2018-11-26T16:25:20.022Z,0.00
2018-11-26T16:26:19.931Z,0.00
2018-11-26T16:27:20.057Z,0.00
2018-11-26T16:28:19.713Z,0.00
2018-11-26T16:29:20.067Z,0.00
2018-11-26T16:30:19.827Z,0.00
2018-11-26T16:31:19.731Z,0.00
2018-11-26T16:32:19.946Z,0.00
2018-11-26T16:33:20.067Z,0.00
2018-11-26T16:34:20.076Z,0.00
2018-11-26T16:36:43.071Z,0.00
2018-11-26T16:37:43.071Z,0.00
2018-11-26T16:38:43.081Z,0.00
2018-11-26T16:39:42.634Z,0.00
2018-11-26T16:40:43.133Z,0.00
2018-11-26T16:41:42.755Z,0.00
2018-11-26T16:42:42.650Z,0.00
2018-11-26T16:43:42.560Z,0.00
2018-11-26T16:44:43.081Z,0.00
2018-11-26T16:45:42.676Z,0.00
2018-11-26T16:46:42.578Z,0.00
2018-11-26T16:47:42.483Z,0.00
2018-11-26T16:48:42.700Z,0.00
2018-11-26T16:49:42.603Z,0.00
2018-11-26T16:51:55.156Z,0.00
2018-11-26T16:52:54.907Z,0.00
2018-11-26T16:53:55.087Z,0.00
2018-11-26T16:54:55.028Z,0.00
2018-11-26T16:55:55.097Z,0.00
2018-11-26T16:56:54.840Z,0.00
2018-11-26T16:57:55.068Z,0.00
2018-11-26T16:58:54.952Z,0.00
2018-11-26T16:59:54.860Z,0.00
2018-11-26T17:00:55.070Z,0.00
2018-11-26T17:01:55.093Z,0.00
2018-11-26T17:02:55.103Z,0.00
2018-11-26T17:03:54.793Z,0.00
2018-11-26T17:04:55.108Z,0.00
2018-11-26T17:07:08.105Z,0.00
2018-11-26T17:08:07.013Z,0.00
2018-11-26T17:09:07.838Z,0.00
2018-11-26T17:10:06.825Z,0.00
2018-11-26T17:11:06.724Z,0.00
2018-11-26T17:12:06.932Z,0.00
2018-11-26T17:13:07.102Z,0.00
2018-11-26T17:14:06.748Z,0.00
2018-11-26T17:15:06.954Z,0.00
2018-11-26T17:16:07.778Z,0.00
2018-11-26T17:17:06.763Z,0.00
2018-11-26T17:18:06.672Z,0.00
2018-11-26T17:19:07.107Z,0.00
2018-11-26T17:20:06.789Z,0.00
2018-11-26T17:22:19.121Z,0.00
2018-11-26T17:23:18.793Z,0.00
2018-11-26T17:24:18.703Z,0.00
2018-11-26T17:25:19.126Z,0.00
2018-11-26T17:26:18.504Z,0.00
2018-11-26T17:27:18.716Z,0.00
2018-11-26T17:28:18.622Z,0.00
2018-11-26T17:29:18.521Z,0.00
2018-11-26T17:30:19.209Z,0.00
2018-11-26T17:31:19.209Z,0.00
2018-11-26T17:32:18.547Z,0.00
2018-11-26T17:33:19.691Z,0.00
2018-11-26T17:34:19.132Z,0.00
2018-11-26T17:35:19.143Z,0.00
2018-11-26T17:37:31.171Z,0.00
2018-11-26T17:38:31.160Z,0.00
2018-11-26T17:39:31.093Z,0.00
2018-11-26T17:40:31.273Z,0.00
2018-11-26T17:41:31.131Z,0.00
2018-11-26T17:42:31.117Z,0.00
2018-11-26T17:43:31.943Z,0.00
2018-11-26T17:44:31.145Z,0.00
2018-11-26T17:45:31.157Z,0.00
2018-11-26T17:46:31.050Z,0.00
2018-11-26T17:47:30.950Z,0.00
2018-11-26T17:48:31.089Z,0.00
2018-11-26T17:49:31.071Z,0.00
2018-11-26T17:50:30.993Z,0.00
2018-11-26T17:52:47.231Z,0.00
2018-11-26T17:53:47.178Z,0.00
2018-11-26T17:54:47.159Z,0.00
2018-11-26T17:55:47.102Z,0.00
2018-11-26T17:56:47.903Z,0.00
2018-11-26T17:57:46.886Z,0.00
2018-11-26T17:58:47.099Z,0.00
2018-11-26T17:59:47.159Z,0.00
2018-11-26T18:00:47.209Z,0.00
2018-11-26T18:01:47.202Z,0.00
2018-11-26T18:02:47.032Z,0.00
2018-11-26T18:03:47.156Z,0.00
2018-11-26T18:04:46.844Z,0.00
2018-11-26T18:05:47.163Z,0.00
2018-11-26T18:08:21.199Z,0.00
2018-11-26T18:09:22.884Z,0.00
2018-11-26T18:10:21.100Z,0.00
2018-11-26T18:11:22.173Z,0.00
2018-11-26T18:12:21.231Z,0.00
2018-11-26T18:13:21.172Z,0.00
2018-11-26T18:14:21.006Z,0.00
2018-11-26T18:15:20.914Z,0.00
2018-11-26T18:16:21.166Z,0.00
2018-11-26T18:17:21.236Z,0.00
2018-11-26T18:18:20.948Z,0.00
2018-11-26T18:19:20.852Z,0.00
2018-11-26T18:20:21.064Z,0.00
2018-11-26T18:22:33.182Z,0.00
2018-11-26T18:23:33.081Z,0.00
2018-11-26T18:24:33.292Z,0.00
2018-11-26T18:25:33.182Z,0.00
2018-11-26T18:26:33.104Z,0.00
2018-11-26T18:27:32.985Z,0.00
2018-11-26T18:28:33.829Z,0.00
2018-11-26T18:29:33.095Z,0.00
2018-11-26T18:30:33.003Z,0.00
2018-11-26T18:31:32.918Z,0.00
2018-11-26T18:32:33.117Z,0.00
2018-11-26T18:33:33.198Z,0.00
2018-11-26T18:34:32.934Z,0.00
2018-11-26T18:35:32.842Z,0.00
2018-11-26T18:36:33.062Z,0.00
2018-11-26T18:38:45.228Z,0.00
2018-11-26T18:39:45.189Z,0.00
2018-11-26T18:40:45.191Z,0.00
2018-11-26T18:41:45.185Z,0.00
2018-11-26T18:42:45.706Z,0.00
2018-11-26T18:43:45.284Z,0.00
2018-11-26T18:44:45.201Z,0.00
2018-11-26T18:45:45.127Z,0.00
2018-11-26T18:46:45.017Z,0.00
2018-11-26T18:47:45.250Z,0.00
2018-11-26T18:48:45.142Z,0.00
2018-11-26T18:49:45.965Z,0.00
2018-11-26T18:50:45.211Z,0.00
2018-11-26T18:51:45.211Z,0.00
2018-11-26T18:53:58.215Z,0.00
2018-11-26T18:54:57.214Z,0.00
2018-11-26T18:55:57.217Z,0.00
2018-11-26T18:56:57.239Z,0.00
2018-11-26T18:57:57.780Z,0.00
2018-11-26T18:58:57.307Z,0.00
2018-11-26T18:59:57.281Z,0.00
2018-11-26T19:00:57.192Z,0.00
2018-11-26T19:01:57.105Z,0.00
2018-11-26T19:02:57.285Z,0.00
2018-11-26T19:03:58.457Z,0.00
2018-11-26T19:04:57.140Z,0.00
2018-11-26T19:05:57.024Z,0.00
2018-11-26T19:06:56.929Z,0.00
2018-11-26T19:09:10.263Z,0.00
2018-11-26T19:10:09.300Z,0.00
2018-11-26T19:11:09.150Z,0.00
2018-11-26T19:12:09.294Z,0.00
2018-11-26T19:13:09.297Z,0.00
2018-11-26T19:14:09.162Z,0.00
2018-11-26T19:15:09.992Z,0.00
2018-11-26T19:16:09.285Z,0.00
2018-11-26T19:17:09.306Z,0.00
2018-11-26T19:18:09.107Z,0.00
2018-11-26T19:19:09.003Z,0.00
2018-11-26T19:20:09.229Z,0.00
2018-11-26T19:21:09.312Z,0.00
2018-11-26T19:22:09.674Z,0.00
2018-11-26T19:24:22.964Z,0.00
2018-11-26T19:25:22.871Z,0.00
2018-11-26T19:26:22.483Z,0.00
2018-11-26T19:27:22.705Z,0.00
2018-11-26T19:28:22.543Z,0.00
2018-11-26T19:29:23.097Z,0.00
2018-11-26T19:30:23.381Z,0.00
2018-11-26T19:31:22.526Z,0.00
2018-11-26T19:32:22.643Z,0.00
2018-11-26T19:33:23.028Z,0.00
2018-11-26T19:34:22.354Z,0.00
2018-11-26T19:35:22.334Z,0.00
2018-11-26T19:36:22.784Z,0.00
2018-11-26T19:37:22.065Z,0.00
2018-11-26T19:39:34.452Z,0.00
2018-11-26T19:40:34.337Z,0.00
2018-11-26T19:41:34.327Z,0.00
2018-11-26T19:42:34.148Z,0.00
2018-11-26T19:43:34.372Z,0.00
2018-11-26T19:44:34.275Z,0.00
2018-11-26T19:45:34.246Z,0.00
2018-11-26T19:46:34.331Z,0.00
2018-11-26T19:47:34.286Z,0.00
2018-11-26T19:48:34.214Z,0.00
2018-11-26T19:49:34.104Z,0.00
2018-11-26T19:50:34.380Z,0.00
2018-11-26T19:51:34.368Z,0.00
2018-11-26T19:52:34.129Z,0.00
2018-11-26T19:54:46.384Z,0.00
2018-11-26T19:55:46.124Z,0.00
2018-11-26T19:56:46.034Z,0.00
2018-11-26T19:57:45.937Z,0.00
2018-11-26T19:58:46.179Z,0.00
2018-11-26T19:59:46.051Z,0.00
2018-11-26T20:00:46.350Z,0.00
2018-11-26T20:01:45.857Z,0.00
2018-11-26T20:02:46.071Z,0.00
2018-11-26T20:03:45.988Z,0.00
2018-11-26T20:04:46.349Z,0.00
2018-11-26T20:05:46.363Z,0.00
2018-11-26T20:06:46.015Z,0.00
2018-11-26T20:07:45.904Z,0.00
2018-11-26T20:09:59.380Z,0.00
2018-11-26T20:10:58.228Z,0.00
2018-11-26T20:11:58.726Z,0.00
2018-11-26T20:12:58.374Z,0.00
2018-11-26T20:13:58.228Z,0.00
2018-11-26T20:14:58.141Z,0.00
2018-11-26T20:15:58.294Z,0.00
2018-11-26T20:16:58.262Z,0.00
2018-11-26T20:17:59.164Z,0.00
2018-11-26T20:18:58.076Z,0.00
2018-11-26T20:19:58.311Z,0.00
2018-11-26T20:20:58.434Z,0.00
2018-11-26T20:21:58.711Z,0.00
2018-11-26T20:22:58.311Z,0.00
2018-11-26T20:25:11.374Z,0.00
2018-11-26T20:26:10.391Z,0.00
2018-11-26T20:27:10.447Z,0.00
2018-11-26T20:28:10.389Z,0.00
2018-11-26T20:29:10.371Z,0.00
2018-11-26T20:30:10.236Z,0.00
2018-11-26T20:31:10.427Z,0.00
2018-11-26T20:32:10.353Z,0.00
2018-11-26T20:33:10.257Z,0.00
2018-11-26T20:34:10.163Z,0.00
2018-11-26T20:35:10.069Z,0.00
2018-11-26T20:36:10.279Z,0.00
2018-11-26T20:37:10.425Z,0.00
2018-11-26T20:38:10.401Z,0.00
2018-11-26T20:40:34.464Z,0.00
2018-11-26T20:41:34.381Z,0.00
2018-11-26T20:42:34.300Z,0.00
2018-11-26T20:43:34.417Z,0.00
2018-11-26T20:44:35.017Z,0.00
2018-11-26T20:45:34.387Z,0.00
2018-11-26T20:46:34.215Z,0.00
2018-11-26T20:47:34.117Z,0.00
2018-11-26T20:48:34.638Z,0.00
2018-11-26T20:49:34.251Z,0.00
2018-11-26T20:50:34.148Z,0.00
2018-11-26T20:51:34.366Z,0.00
2018-11-26T20:52:34.409Z,0.00
2018-11-26T20:53:34.420Z,0.00
2018-11-26T20:55:47.489Z,0.00
2018-11-26T20:56:46.400Z,0.00
2018-11-26T20:57:47.924Z,0.00
2018-11-26T20:58:46.403Z,0.00
2018-11-26T20:59:47.100Z,0.00
2018-11-26T21:00:46.403Z,0.00
2018-11-26T21:01:46.417Z,0.00
2018-11-26T21:02:46.204Z,0.00
2018-11-26T21:03:46.461Z,0.00
2018-11-26T21:04:46.454Z,0.00
2018-11-26T21:05:46.442Z,0.00
2018-11-26T21:06:46.152Z,0.00
2018-11-26T21:07:46.421Z,0.00
2018-11-26T21:08:46.570Z,0.00
2018-11-26T21:10:59.498Z,0.00
2018-11-26T21:11:58.565Z,0.00
2018-11-26T21:12:58.164Z,0.00
2018-11-26T21:13:58.068Z,0.00
2018-11-26T21:14:58.279Z,0.00
2018-11-26T21:15:58.193Z,0.00
2018-11-26T21:16:58.478Z,0.00
2018-11-26T21:17:57.997Z,0.00
2018-11-26T21:18:58.427Z,0.00
2018-11-26T21:19:58.110Z,0.00
2018-11-26T21:20:58.023Z,0.00
2018-11-26T21:21:57.926Z,0.00
2018-11-26T21:22:58.449Z,0.00
2018-11-26T21:23:58.043Z,0.00
2018-11-26T21:26:10.747Z,0.00
2018-11-26T21:27:10.348Z,0.00
2018-11-26T21:28:10.254Z,0.00
2018-11-26T21:29:10.153Z,0.00